Time;durP1;ratioP1;P1;durP2;ratioP2;P2;SDS_P1;SDS_P2;PMS_P1;PMS_P2;Temp;Humidity;BMP_temperature;BMP_pressure;BME280_temperature;BME280_humidity;BME280_pressure;Samples;Min_cycle;Max_cycle;Signal;HPM_P1;HPM_P2
2022/05/30 00:00:15;;;;;;;2.43;2.20;;;7.20;99.90;;;;;;5013999;28;20189;-89
2022/05/30 00:02:41;;;;;;;3.93;2.00;;;7.10;99.90;;;;;;5015974;28;20179;-88
2022/05/30 00:05:09;;;;;;;2.93;2.37;;;7.10;99.90;;;;;;5014676;28;20191;-88
2022/05/30 00:07:36;;;;;;;2.93;2.43;;;7.00;99.90;;;;;;5030960;28;20196;-89
2022/05/30 00:10:03;;;;;;;3.73;2.60;;;7.00;99.90;;;;;;5030894;28;20279;-89
2022/05/30 00:12:30;;;;;;;2.80;2.40;;;7.00;99.90;;;;;;5014444;28;20207;-89
2022/05/30 00:14:56;;;;;;;4.90;3.00;;;7.00;99.90;;;;;;5013957;28;20207;-88
2022/05/30 00:17:22;;;;;;;3.60;2.67;;;7.00;99.90;;;;;;5017617;28;20180;-89
2022/05/30 00:19:48;;;;;;;3.17;2.67;;;6.90;99.90;;;;;;5018173;28;20283;-88
2022/05/30 00:22:14;;;;;;;3.30;2.60;;;6.70;99.90;;;;;;5018032;28;20285;-88
2022/05/30 00:24:43;;;;;;;4.77;3.00;;;6.60;99.90;;;;;;5018167;28;20221;-88
2022/05/30 00:27:11;;;;;;;3.43;2.37;;;6.40;99.90;;;;;;5035117;28;20182;-88
2022/05/30 00:29:38;;;;;;;4.00;2.47;;;6.30;99.90;;;;;;5019388;28;20211;-89
2022/05/30 00:32:05;;;;;;;3.80;2.40;;;6.20;99.90;;;;;;5019918;28;20204;-89
2022/05/30 00:34:33;;;;;;;2.53;2.20;;;6.30;99.90;;;;;;5018287;28;20183;-88
2022/05/30 00:37:00;;;;;;;4.20;2.60;;;6.40;99.90;;;;;;5034876;28;20175;-88
2022/05/30 00:39:26;;;;;;;2.80;2.50;;;6.40;99.90;;;;;;5019381;28;20189;-88
2022/05/30 00:42:03;;;;;;;2.37;2.07;;;6.40;99.90;;;;;;5018829;28;20245;-89
2022/05/30 00:44:29;;;;;;;3.83;2.40;;;6.40;99.90;;;;;;5017370;28;20215;-89
2022/05/30 00:46:55;;;;;;;4.73;2.77;;;6.40;99.90;;;;;;5017643;28;20202;-89
2022/05/30 00:49:21;;;;;;;2.87;2.57;;;6.40;99.90;;;;;;5017404;28;20209;-88
2022/05/30 00:51:53;;;;;;;2.43;1.90;;;6.40;99.90;;;;;;5017627;28;20290;-88
2022/05/30 00:54:23;;;;;;;2.57;2.10;;;6.40;99.90;;;;;;5033563;28;20182;-88
2022/05/30 00:56:53;;;;;;;2.50;2.07;;;6.40;99.90;;;;;;5033850;28;20221;-88
2022/05/30 00:59:20;;;;;;;2.93;2.30;;;6.40;99.90;;;;;;5017761;28;20184;-89
2022/05/30 01:01:46;;;;;;;3.73;2.13;;;6.40;99.90;;;;;;5017014;28;20211;-88
2022/05/30 01:07:01;;;;;;;2.60;2.40;;;6.30;99.90;;;;;;5033434;28;20208;-88
2022/05/30 01:09:35;;;;;;;3.37;2.33;;;6.30;99.90;;;;;;5017099;28;20595;-89
2022/05/30 01:12:09;;;;;;;3.50;2.70;;;6.30;99.90;;;;;;5016858;28;20263;-88
2022/05/30 01:14:40;;;;;;;4.13;2.60;;;6.20;99.90;;;;;;5016993;28;20178;-88
2022/05/30 01:17:11;;;;;;;2.73;2.40;;;6.10;99.90;;;;;;5017033;28;20183;-89
2022/05/30 01:20:00;;;;;;;3.00;2.70;;;6.10;99.90;;;;;;5016229;28;20245;-88
2022/05/30 01:22:41;;;;;;;3.20;2.53;;;6.10;99.90;;;;;;5016683;28;20223;-88
2022/05/30 01:25:20;;;;;;;3.63;2.30;;;6.00;99.90;;;;;;5016825;28;20207;-88
2022/05/30 01:28:53;;;;;;;3.90;2.47;;;6.00;99.90;;;;;;5021835;28;20182;-88
2022/05/30 01:31:20;;;;;;;3.33;2.40;;;6.00;99.90;;;;;;5016367;28;20691;-89
2022/05/30 01:33:46;;;;;;;3.63;2.47;;;6.00;99.90;;;;;;5016492;28;20194;-88
2022/05/30 01:36:12;;;;;;;4.03;2.43;;;6.00;99.90;;;;;;5016468;28;20187;-88
2022/05/30 01:38:38;;;;;;;3.23;2.53;;;6.00;99.90;;;;;;5049160;28;20186;-88
2022/05/30 01:41:05;;;;;;;6.23;2.83;;;6.00;99.90;;;;;;5049893;28;20207;-88
2022/05/30 01:43:33;;;;;;;2.60;2.40;;;5.90;99.90;;;;;;5015905;28;20176;-89
2022/05/30 01:46:07;;;;;;;3.43;2.50;;;5.90;99.90;;;;;;5017105;28;20191;-88
2022/05/30 01:48:37;;;;;;;2.97;2.67;;;5.90;99.90;;;;;;5017050;28;20184;-88
2022/05/30 01:51:04;;;;;;;3.10;2.50;;;6.00;99.90;;;;;;5016237;28;20348;-88
2022/05/30 01:53:31;;;;;;;3.03;2.63;;;6.10;99.90;;;;;;5016229;28;20700;-88
2022/05/30 01:56:16;;;;;;;3.13;2.40;;;6.10;99.90;;;;;;5032587;28;20199;-88
2022/05/30 01:58:42;;;;;;;4.23;2.60;;;6.10;99.90;;;;;;5016140;28;20181;-89
2022/05/30 02:01:28;;;;;;;3.00;2.70;;;6.10;99.90;;;;;;5032727;28;20238;-88
2022/05/30 02:03:57;;;;;;;4.97;2.53;;;6.10;99.90;;;;;;5016091;28;20184;-88
2022/05/30 02:06:26;;;;;;;3.07;2.37;;;6.10;99.90;;;;;;5015687;28;20183;-89
2022/05/30 02:08:53;;;;;;;4.73;2.30;;;6.10;99.90;;;;;;5015761;28;20182;-88
2022/05/30 02:11:24;;;;;;;4.13;2.40;;;6.20;99.90;;;;;;5016144;28;20290;-88
2022/05/30 02:13:56;;;;;;;3.07;2.30;;;6.10;99.90;;;;;;5016304;28;20204;-88
2022/05/30 02:19:17;;;;;;;2.23;2.00;;;6.10;99.90;;;;;;5032150;28;20230;-88
2022/05/30 02:21:44;;;;;;;4.10;2.53;;;6.10;99.90;;;;;;5015976;28;20285;-88
2022/05/30 02:24:11;;;;;;;3.00;2.37;;;6.00;99.90;;;;;;5031764;28;20182;-88
2022/05/30 02:26:38;;;;;;;4.57;2.67;;;6.10;99.90;;;;;;5015524;28;20182;-88
2022/05/30 02:29:06;;;;;;;2.80;2.50;;;6.00;99.90;;;;;;5031313;28;20187;-88
2022/05/30 02:31:33;;;;;;;3.80;2.70;;;6.10;99.90;;;;;;5015538;28;20219;-88
2022/05/30 02:36:44;;;;;;;3.67;2.13;;;5.90;99.90;;;;;;5031845;28;20182;-88
2022/05/30 02:39:30;;;;;;;3.80;2.20;;;5.80;99.90;;;;;;5031288;28;20183;-89
2022/05/30 02:42:17;;;;;;;2.73;2.50;;;5.80;99.90;;;;;;5031733;28;20209;-88
2022/05/30 02:44:44;;;;;;;5.07;2.60;;;5.60;99.90;;;;;;5015156;28;20197;-88
2022/05/30 02:47:10;;;;;;;3.20;2.40;;;5.50;99.90;;;;;;5015267;28;20183;-88
2022/05/30 02:49:41;;;;;;;3.37;2.60;;;5.50;99.90;;;;;;5015794;28;20210;-88
2022/05/30 02:52:08;;;;;;;3.53;2.80;;;5.40;99.90;;;;;;5014865;28;20634;-88
2022/05/30 02:54:34;;;;;;;3.10;2.30;;;5.40;99.90;;;;;;5031049;28;20237;-88
2022/05/30 02:57:19;;;;;;;3.97;2.97;;;5.40;99.90;;;;;;5017684;28;20171;-88
2022/05/30 02:59:44;;;;;;;2.80;2.20;;;5.30;99.90;;;;;;5015337;28;20233;-88
2022/05/30 03:02:10;;;;;;;2.30;2.10;;;5.30;99.90;;;;;;5014575;28;20202;-88
2022/05/30 03:04:36;;;;;;;3.63;2.80;;;5.20;99.90;;;;;;5014590;28;20201;-88
2022/05/30 03:07:07;;;;;;;2.80;2.60;;;5.20;99.90;;;;;;5015247;28;20187;-88
2022/05/30 03:09:33;;;;;;;4.73;2.67;;;5.20;99.90;;;;;;5014845;28;20198;-89
2022/05/30 03:12:02;;;;;;;2.63;2.43;;;5.10;99.90;;;;;;5031634;28;20225;-88
2022/05/30 03:14:29;;;;;;;3.60;2.63;;;5.10;99.90;;;;;;5014078;28;20175;-88
2022/05/30 03:16:55;;;;;;;2.80;2.40;;;5.00;99.90;;;;;;5014394;28;20236;-88
2022/05/30 03:19:22;;;;;;;3.00;2.70;;;5.00;99.90;;;;;;5014589;28;20548;-88
2022/05/30 03:21:49;;;;;;;4.40;2.67;;;5.00;99.90;;;;;;5031462;28;20206;-88
2022/05/30 03:24:15;;;;;;;3.87;2.70;;;5.00;99.90;;;;;;5014594;28;20191;-88
2022/05/30 03:26:41;;;;;;;3.97;3.00;;;4.90;99.90;;;;;;5014887;28;20194;-88
2022/05/30 03:29:07;;;;;;;3.00;2.70;;;4.90;99.90;;;;;;5014773;28;20239;-88
2022/05/30 03:31:36;;;;;;;4.40;2.70;;;4.90;99.90;;;;;;5014381;28;20202;-88
2022/05/30 03:34:02;;;;;;;5.00;2.50;;;4.90;99.90;;;;;;5043882;28;20178;-88
2022/05/30 03:36:29;;;;;;;2.73;2.33;;;4.90;99.90;;;;;;5014456;28;20178;-88
2022/05/30 03:39:13;;;;;;;3.77;2.40;;;4.90;99.90;;;;;;5045685;28;20190;-88
2022/05/30 03:41:58;;;;;;;3.47;2.60;;;4.80;99.90;;;;;;5045122;28;20229;-88
2022/05/30 03:44:45;;;;;;;2.93;2.30;;;4.80;99.90;;;;;;5044243;28;20198;-88
2022/05/30 03:47:11;;;;;;;3.87;2.40;;;4.90;99.90;;;;;;5031080;28;20202;-88
2022/05/30 03:49:38;;;;;;;3.83;2.67;;;4.90;99.90;;;;;;5047630;28;20624;-88
2022/05/30 03:52:04;;;;;;;4.10;2.60;;;4.90;99.90;;;;;;5049671;28;20194;-88
2022/05/30 03:54:31;;;;;;;3.00;2.70;;;4.80;99.90;;;;;;5051128;28;20240;-88
2022/05/30 03:56:57;;;;;;;3.17;2.43;;;4.90;99.90;;;;;;5034428;28;20182;-88
2022/05/30 03:59:23;;;;;;;2.60;2.40;;;4.90;99.90;;;;;;5036688;28;20186;-88
2022/05/30 04:01:50;;;;;;;4.10;2.27;;;4.90;99.90;;;;;;5028450;28;20226;-88
2022/05/30 04:04:16;;;;;;;5.67;2.53;;;5.00;99.90;;;;;;5048396;28;20175;-89
2022/05/30 04:06:42;;;;;;;2.60;2.40;;;5.00;99.90;;;;;;5018656;28;20182;-88
2022/05/30 04:09:08;;;;;;;3.10;2.80;;;5.00;99.90;;;;;;5051769;28;20256;-88
2022/05/30 04:12:10;;;;;;;2.67;2.23;;;5.00;99.90;;;;;;5050043;28;20198;-89
2022/05/30 04:14:59;;;;;;;3.67;2.70;;;5.00;99.90;;;;;;5030713;28;20187;-88
2022/05/30 04:17:32;;;;;;;2.87;2.27;;;5.00;99.90;;;;;;5014906;28;20201;-88
2022/05/30 04:20:02;;;;;;;3.13;2.50;;;5.00;99.90;;;;;;5015072;28;20187;-88
2022/05/30 04:22:30;;;;;;;2.70;2.50;;;5.10;99.90;;;;;;5015145;28;20226;-88
2022/05/30 04:25:16;;;;;;;3.77;2.50;;;5.00;99.90;;;;;;5020875;28;20191;-88
2022/05/30 04:27:42;;;;;;;2.80;2.50;;;5.00;99.90;;;;;;5017171;28;20252;-88
2022/05/30 04:30:09;;;;;;;7.37;4.70;;;5.10;99.90;;;;;;5017143;28;20268;-88
2022/05/30 04:32:45;;;;;;;4.83;3.20;;;5.10;99.90;;;;;;5018554;28;20175;-88
2022/05/30 04:35:12;;;;;;;3.87;2.97;;;5.20;99.90;;;;;;5017654;28;20190;-89
2022/05/30 04:37:38;;;;;;;4.00;2.73;;;5.30;99.90;;;;;;5017581;28;20187;-89
2022/05/30 04:40:26;;;;;;;3.27;2.70;;;5.30;99.90;;;;;;5033409;28;20635;-88
2022/05/30 04:43:23;;;;;;;3.63;3.07;;;5.40;99.90;;;;;;5033267;28;20186;-88
2022/05/30 04:46:22;;;;;;;4.00;2.80;;;5.40;99.90;;;;;;5033747;28;20206;-88
2022/05/30 04:48:50;;;;;;;3.97;3.00;;;5.50;99.90;;;;;;5035910;28;20529;-88
2022/05/30 04:51:16;;;;;;;3.40;2.60;;;5.50;99.90;;;;;;5018944;28;20210;-88
2022/05/30 04:53:42;;;;;;;4.33;2.80;;;5.60;99.90;;;;;;5035508;28;20183;-88
2022/05/30 04:56:44;;;;;;;7.23;4.50;;;5.60;99.90;;;;;;5026408;28;20190;-88
2022/05/30 04:59:17;;;;;;;4.70;2.90;;;5.70;99.90;;;;;;4999099;28;20176;-87
2022/05/30 05:01:44;;;;;;;3.47;2.70;;;5.80;99.90;;;;;;4996508;28;20207;-88
2022/05/30 05:04:15;;;;;;;3.83;2.80;;;5.90;99.90;;;;;;4997439;28;20176;-88
2022/05/30 05:06:45;;;;;;;4.80;2.97;;;5.90;99.90;;;;;;4980868;28;20183;-88
2022/05/30 05:09:16;;;;;;;3.20;2.90;;;6.00;99.90;;;;;;4997666;28;20180;-88
2022/05/30 05:12:08;;;;;;;3.60;2.70;;;6.10;99.90;;;;;;5014851;28;20207;-89
2022/05/30 05:14:40;;;;;;;3.13;2.73;;;6.10;99.90;;;;;;5016694;28;20206;-88
2022/05/30 05:17:24;;;;;;;3.07;2.77;;;6.30;99.90;;;;;;5034910;28;20311;-88
2022/05/30 05:19:50;;;;;;;2.97;2.50;;;6.40;99.90;;;;;;5034201;28;20197;-88
2022/05/30 05:22:16;;;;;;;2.80;2.50;;;6.40;99.90;;;;;;5031298;28;20248;-88
2022/05/30 05:24:43;;;;;;;5.90;2.70;;;6.60;99.90;;;;;;5032622;28;20201;-88
2022/05/30 05:27:16;;;;;;;4.53;2.70;;;6.70;99.90;;;;;;5032925;28;20215;-88
2022/05/30 05:29:43;;;;;;;2.80;2.57;;;6.70;99.90;;;;;;5032467;28;20268;-88
2022/05/30 05:32:09;;;;;;;3.93;2.67;;;6.80;99.90;;;;;;5015940;28;20192;-88
2022/05/30 05:34:36;;;;;;;3.27;2.50;;;6.90;99.90;;;;;;5015703;28;20184;-89
2022/05/30 05:37:02;;;;;;;3.10;2.80;;;7.00;99.90;;;;;;5015708;28;20237;-88
2022/05/30 05:39:32;;;;;;;3.63;2.63;;;7.10;99.90;;;;;;5017922;28;20178;-88
2022/05/30 05:42:01;;;;;;;3.57;2.80;;;7.20;99.90;;;;;;5018090;28;20202;-88
2022/05/30 05:44:27;;;;;;;4.67;2.50;;;7.40;99.90;;;;;;5017839;28;20189;-90
2022/05/30 05:46:57;;;;;;;3.40;2.40;;;7.50;99.90;;;;;;5018262;28;20188;-88
2022/05/30 05:49:24;;;;;;;3.20;2.50;;;7.70;99.90;;;;;;5035459;28;20239;-89
2022/05/30 05:51:54;;;;;;;3.50;2.40;;;7.80;99.90;;;;;;5014884;28;20231;-88
2022/05/30 05:54:23;;;;;;;3.57;2.80;;;7.90;99.90;;;;;;5031275;28;20174;-89
2022/05/30 05:56:51;;;;;;;3.10;2.30;;;7.90;99.90;;;;;;5015326;28;20255;-89
2022/05/30 05:59:25;;;;;;;2.63;2.43;;;8.20;99.90;;;;;;5016504;28;20186;-88
2022/05/30 06:01:51;;;;;;;3.03;2.50;;;8.30;99.90;;;;;;5015850;28;20282;-88
2022/05/30 06:04:19;;;;;;;2.60;2.40;;;8.50;99.90;;;;;;5015336;28;20178;-89
2022/05/30 06:07:03;;;;;;;3.37;2.70;;;8.50;99.90;;;;;;5031719;28;20216;-88
2022/05/30 06:09:33;;;;;;;5.90;2.97;;;8.70;99.90;;;;;;5015716;28;20214;-89
2022/05/30 06:12:12;;;;;;;3.30;2.80;;;8.80;99.90;;;;;;5017347;28;20197;-89
2022/05/30 06:14:40;;;;;;;3.37;2.67;;;9.00;99.90;;;;;;5014425;28;20194;-88
2022/05/30 06:17:06;;;;;;;2.43;2.23;;;9.10;99.90;;;;;;5015624;28;20185;-88
2022/05/30 06:19:34;;;;;;;4.17;2.50;;;9.30;99.90;;;;;;5015345;28;20189;-89
2022/05/30 06:22:02;;;;;;;3.30;2.40;;;9.50;99.90;;;;;;5015312;28;20216;-89
2022/05/30 06:24:32;;;;;;;4.43;2.47;;;9.70;99.90;;;;;;5014521;28;20196;-89
2022/05/30 06:27:19;;;;;;;3.63;2.40;;;10.00;99.90;;;;;;5032454;28;20196;-89
2022/05/30 06:29:55;;;;;;;3.47;2.47;;;10.30;99.90;;;;;;5031412;28;20573;-89
2022/05/30 06:32:22;;;;;;;5.50;2.47;;;10.40;99.90;;;;;;5031321;28;20195;-89
2022/05/30 06:35:09;;;;;;;2.93;2.57;;;10.50;99.90;;;;;;5017102;28;20308;-89
2022/05/30 06:37:38;;;;;;;3.30;2.50;;;10.80;99.90;;;;;;5014876;28;20186;-89
2022/05/30 06:40:06;;;;;;;3.73;2.50;;;11.00;99.90;;;;;;5014597;28;20183;-89
2022/05/30 06:42:44;;;;;;;5.87;3.03;;;11.20;99.90;;;;;;5030660;28;20198;-89
2022/05/30 06:45:30;;;;;;;4.03;2.33;;;11.50;99.90;;;;;;5030604;28;20194;-89
2022/05/30 06:48:15;;;;;;;2.57;2.37;;;11.80;99.90;;;;;;5030382;28;20238;-89
2022/05/30 06:50:47;;;;;;;2.50;2.30;;;11.90;99.90;;;;;;5030343;28;20214;-88
2022/05/30 06:53:13;;;;;;;3.57;2.67;;;12.10;99.90;;;;;;5013798;28;20175;-88
2022/05/30 06:55:38;;;;;;;3.20;2.57;;;12.20;99.90;;;;;;5013339;28;20196;-88
2022/05/30 06:58:14;;;;;;;2.87;2.40;;;12.40;99.90;;;;;;5013790;28;20266;-88
2022/05/30 07:00:44;;;;;;;4.97;2.40;;;12.50;99.90;;;;;;5030295;28;20206;-88
2022/05/30 07:03:29;;;;;;;3.47;2.90;;;12.60;99.90;;;;;;5030675;28;20198;-89
2022/05/30 07:06:17;;;;;;;4.27;2.60;;;12.80;99.90;;;;;;5030491;28;20601;-89
2022/05/30 07:09:03;;;;;;;3.37;2.43;;;12.80;99.90;;;;;;5030981;28;20240;-89
2022/05/30 07:11:38;;;;;;;2.70;2.37;;;13.00;99.90;;;;;;5032106;28;20309;-88
2022/05/30 07:14:10;;;;;;;2.77;2.47;;;13.10;99.90;;;;;;5031832;28;20217;-89
2022/05/30 07:16:37;;;;;;;3.23;2.40;;;13.20;99.90;;;;;;5015439;28;20175;-90
2022/05/30 07:19:03;;;;;;;3.13;2.67;;;13.40;99.90;;;;;;5015278;28;20265;-90
2022/05/30 07:21:33;;;;;;;2.87;2.03;;;13.60;99.90;;;;;;5029760;28;20208;-89
2022/05/30 07:24:18;;;;;;;3.23;2.30;;;13.70;99.90;;;;;;5029941;28;20235;-89
2022/05/30 07:27:03;;;;;;;2.90;2.30;;;13.80;99.90;;;;;;5030171;28;20187;-89
2022/05/30 07:29:47;;;;;;;10.30;2.60;;;13.90;99.90;;;;;;5029897;28;20219;-89
2022/05/30 07:32:33;;;;;;;2.17;2.03;;;14.00;99.90;;;;;;5030199;28;20251;-89
2022/05/30 07:35:19;;;;;;;3.70;2.30;;;14.30;99.90;;;;;;5030082;28;20216;-89
2022/05/30 07:38:04;;;;;;;2.73;2.10;;;14.40;99.90;;;;;;5030468;28;20184;-89
2022/05/30 07:40:46;;;;;;;3.70;2.37;;;14.60;99.90;;;;;;5016114;28;20229;-90
2022/05/30 07:43:27;;;;;;;2.63;1.90;;;14.70;99.90;;;;;;5031007;28;20182;-90
2022/05/30 07:46:22;;;;;;;3.00;1.67;;;14.90;99.90;;;;;;5018139;28;20288;-89
2022/05/30 07:49:07;;;;;;;3.63;1.60;;;15.10;99.90;;;;;;5031237;28;20232;-89
2022/05/30 07:51:53;;;;;;;2.87;1.80;;;15.30;99.90;;;;;;5030944;28;20209;-90
2022/05/30 07:54:48;;;;;;;2.57;1.60;;;14.90;99.90;;;;;;5030390;28;20194;-90
2022/05/30 07:57:19;;;;;;;1.90;1.50;;;15.20;99.90;;;;;;5013917;28;20187;-90
2022/05/30 07:59:45;;;;;;;6.00;1.70;;;15.30;99.90;;;;;;5013319;28;20174;-89
2022/05/30 08:02:12;;;;;;;2.40;1.60;;;15.30;99.90;;;;;;5012977;28;20249;-90
2022/05/30 08:04:41;;;;;;;2.93;1.40;;;15.50;99.90;;;;;;5012994;28;20179;-90
2022/05/30 08:07:26;;;;;;;4.33;1.40;;;15.50;99.90;;;;;;5029839;28;20353;-89
2022/05/30 08:10:30;;;;;;;2.07;1.43;;;15.80;99.90;;;;;;5029617;28;20202;-89
2022/05/30 08:12:56;;;;;;;2.57;1.90;;;15.80;99.90;;;;;;5013382;28;20183;-89
2022/05/30 08:15:37;;;;;;;3.37;1.87;;;15.80;99.90;;;;;;5038736;28;20235;-89
2022/05/30 08:18:22;;;;;;;5.00;1.80;;;16.10;99.90;;;;;;5043891;28;20193;-90
2022/05/30 08:20:52;;;;;;;3.87;1.80;;;16.30;99.90;;;;;;5013214;28;20203;-90
2022/05/30 08:23:18;;;;;;;3.87;1.60;;;16.20;99.90;;;;;;5012906;28;20372;-90
2022/05/30 08:25:47;;;;;;;3.23;1.63;;;16.30;99.90;;;;;;5012713;28;20193;-90
2022/05/30 08:28:14;;;;;;;4.30;1.87;;;16.60;99.90;;;;;;5013094;28;20198;-89
2022/05/30 08:30:40;;;;;;;2.80;1.70;;;16.60;99.90;;;;;;5029330;28;20241;-89
2022/05/30 08:33:27;;;;;;;4.47;1.70;;;16.80;99.90;;;;;;5028836;28;20285;-90
2022/05/30 08:36:13;;;;;;;3.37;1.63;;;17.00;99.90;;;;;;5029581;28;20252;-89
2022/05/30 08:38:39;;;;;;;1.37;1.23;;;17.20;99.90;;;;;;5015607;28;20241;-88
2022/05/30 08:44:21;;;;;;;3.72;1.50;;;17.60;99.90;;;;;;5025133;28;20202;-89
2022/05/30 08:47:23;;;;;;;3.42;1.50;;;17.50;99.90;;;;;;5044809;28;20285;-90
2022/05/30 08:49:52;;;;;;;3.20;1.38;;;17.60;99.90;;;;;;5038849;28;20201;-89
2022/05/30 08:53:06;;;;;;;1.75;1.40;;;17.90;99.90;;;;;;5039585;28;20198;-90
2022/05/30 08:55:46;;;;;;;1.73;1.40;;;17.80;99.40;;;;;;5026094;28;20599;-90
2022/05/30 08:58:41;;;;;;;3.00;1.38;;;17.90;98.30;;;;;;5029713;28;20180;-89
2022/05/30 09:01:31;;;;;;;1.73;1.20;;;17.90;99.40;;;;;;5014052;28;20279;-89
2022/05/30 09:04:36;;;;;;;3.55;1.50;;;17.80;96.70;;;;;;5014691;28;20183;-90
2022/05/30 09:07:13;;;;;;;2.22;1.10;;;18.10;98.60;;;;;;5014495;28;20183;-90
2022/05/30 09:09:52;;;;;;;2.13;1.30;;;18.50;98.00;;;;;;5014710;28;20325;-90
2022/05/30 09:12:40;;;;;;;3.03;1.40;;;18.80;97.30;;;;;;5014449;28;20218;-90
2022/05/30 09:15:36;;;;;;;2.53;1.30;;;19.00;94.90;;;;;;5020175;28;20190;-90
2022/05/30 09:18:17;;;;;;;2.45;1.20;;;18.70;94.00;;;;;;5038861;28;20261;-90
2022/05/30 09:20:43;;;;;;;2.58;1.15;;;18.40;94.30;;;;;;5040278;28;20199;-91
2022/05/30 09:23:18;;;;;;;2.65;1.10;;;18.80;95.00;;;;;;5049420;28;20179;-90
2022/05/30 09:26:07;;;;;;;2.85;1.70;;;19.10;95.80;;;;;;5049229;28;20174;-91
2022/05/30 09:28:44;;;;;;;2.88;1.20;;;19.30;95.50;;;;;;5035828;28;20195;-91
2022/05/30 09:31:36;;;;;;;1.77;1.15;;;19.30;93.20;;;;;;5022647;28;20222;-90
2022/05/30 09:34:45;;;;;;;1.98;1.13;;;19.20;94.90;;;;;;5037542;28;20274;-91
2022/05/30 09:37:37;;;;;;;1.73;1.30;;;19.00;95.10;;;;;;5038506;28;20170;-91
2022/05/30 09:40:20;;;;;;;2.60;1.17;;;18.90;94.30;;;;;;5037774;28;20194;-90
2022/05/30 09:43:06;;;;;;;3.03;1.00;;;18.80;94.30;;;;;;5041254;28;20190;-91
2022/05/30 09:45:36;;;;;;;2.92;1.30;;;18.50;94.00;;;;;;5005048;28;20189;-91
2022/05/30 09:48:12;;;;;;;2.10;1.40;;;18.30;94.60;;;;;;5040448;28;20190;-91
2022/05/30 09:50:58;;;;;;;2.38;1.27;;;17.80;94.40;;;;;;5031556;28;20218;-91
2022/05/30 09:53:45;;;;;;;2.20;1.48;;;17.50;94.90;;;;;;5035603;28;20218;-90
2022/05/30 09:56:17;;;;;;;1.67;1.30;;;17.40;95.10;;;;;;5037462;28;20172;-91
2022/05/30 09:58:58;;;;;;;1.85;1.13;;;17.60;95.90;;;;;;5038588;28;20183;-91
2022/05/30 10:01:35;;;;;;;2.67;1.35;;;17.90;96.10;;;;;;5029363;28;20199;-91
2022/05/30 10:04:20;;;;;;;2.17;1.20;;;18.30;94.20;;;;;;5038720;28;20170;-91
2022/05/30 10:07:19;;;;;;;2.15;1.23;;;18.50;93.70;;;;;;5031909;28;20186;-90
2022/05/30 10:10:30;;;;;;;1.92;1.05;;;18.80;93.70;;;;;;5027116;28;20211;-91
2022/05/30 10:13:04;;;;;;;2.03;1.10;;;19.20;92.80;;;;;;5004543;28;20225;-91
2022/05/30 10:15:58;;;;;;;1.60;1.13;;;19.20;92.90;;;;;;5025686;28;20248;-90
2022/05/30 10:18:30;;;;;;;1.10;1.00;;;19.30;93.30;;;;;;5024631;28;20179;-91
2022/05/30 10:21:27;;;;;;;3.35;1.50;;;19.70;92.30;;;;;;5033658;28;20198;-91
2022/05/30 10:31:28;;;;;;;1.70;1.02;;;20.70;90.50;;;;;;5013851;28;20222;-90
2022/05/30 10:34:51;;;;;;;1.10;0.80;;;20.60;89.30;;;;;;5021047;28;20187;-90
2022/05/30 10:37:34;;;;;;;1.52;1.00;;;20.80;90.70;;;;;;5012514;28;20191;-87
2022/05/30 10:40:24;;;;;;;3.05;1.33;;;21.00;90.20;;;;;;5029418;28;20198;-91
2022/05/30 10:43:00;;;;;;;1.58;1.08;;;21.20;85.40;;;;;;5029075;28;20651;-91
2022/05/30 10:45:49;;;;;;;2.03;1.05;;;21.40;86.40;;;;;;5027171;28;20191;-91
2022/05/30 10:48:38;;;;;;;1.45;1.20;;;21.50;85.70;;;;;;5027278;28;20210;-91
2022/05/30 10:51:23;;;;;;;2.05;1.00;;;21.30;84.80;;;;;;5027217;28;20222;-91
2022/05/30 10:54:32;;;;;;;1.98;1.02;;;21.20;82.50;;;;;;5026655;28;20245;-90
2022/05/30 10:57:25;;;;;;;2.65;1.17;;;20.00;83.10;;;;;;5026545;28;20182;-91
2022/05/30 11:00:09;;;;;;;1.80;1.00;;;19.70;86.00;;;;;;5028171;28;20183;-90
2022/05/30 11:02:50;;;;;;;1.10;0.90;;;19.50;87.20;;;;;;5028883;28;20199;-90
2022/05/30 11:05:35;;;;;;;1.65;1.02;;;19.50;87.10;;;;;;5028767;28;20183;-91
2022/05/30 11:08:21;;;;;;;1.55;0.93;;;19.70;87.10;;;;;;5029039;28;20179;-90
2022/05/30 11:11:07;;;;;;;2.38;1.08;;;20.20;85.10;;;;;;5027232;28;20305;-90
2022/05/30 11:13:44;;;;;;;1.73;1.10;;;20.30;84.70;;;;;;5026711;28;20182;-91
2022/05/30 11:16:52;;;;;;;1.85;1.20;;;20.70;83.50;;;;;;5015700;28;20187;-90
2022/05/30 11:20:09;;;;;;;2.25;1.00;;;20.90;82.00;;;;;;5024783;28;20194;-91
2022/05/30 11:22:57;;;;;;;1.55;1.00;;;21.50;82.10;;;;;;5024342;28;20663;-91
2022/05/30 11:25:55;;;;;;;1.23;0.95;;;21.80;80.70;;;;;;5037015;28;20722;-92
2022/05/30 11:28:49;;;;;;;1.58;1.10;;;21.80;79.80;;;;;;5014008;28;20175;-91
2022/05/30 11:31:26;;;;;;;2.17;1.10;;;22.00;78.30;;;;;;5013827;28;20268;-91
2022/05/30 11:34:13;;;;;;;1.48;1.00;;;21.70;79.70;;;;;;5009486;28;20167;-91
2022/05/30 11:36:57;;;;;;;1.75;1.00;;;22.10;80.30;;;;;;5011117;28;20183;-91
2022/05/30 11:39:42;;;;;;;1.30;1.00;;;22.20;79.90;;;;;;5010718;28;20194;-90
2022/05/30 11:42:46;;;;;;;1.20;1.00;;;21.40;80.70;;;;;;5011298;28;20199;-91
2022/05/30 11:45:29;;;;;;;1.60;1.17;;;20.60;82.50;;;;;;5010681;28;20253;-91
2022/05/30 11:48:13;;;;;;;1.50;0.90;;;20.00;82.90;;;;;;5009925;28;20209;-90
2022/05/30 11:51:00;;;;;;;1.33;0.90;;;19.70;83.40;;;;;;5010084;28;20241;-91
2022/05/30 11:53:31;;;;;;;2.40;1.10;;;19.60;84.30;;;;;;5024935;28;20178;-91
2022/05/30 11:56:22;;;;;;;3.00;1.00;;;19.50;85.10;;;;;;5034953;28;20253;-91
2022/05/30 11:59:19;;;;;;;2.10;1.05;;;19.30;84.00;;;;;;5030429;28;20172;-90
2022/05/30 12:01:49;;;;;;;1.70;1.30;;;19.10;85.90;;;;;;5018487;28;20199;-90
2022/05/30 12:04:21;;;;;;;1.92;1.10;;;19.30;83.40;;;;;;4995956;28;20179;-91
2022/05/30 12:07:08;;;;;;;2.67;1.20;;;19.70;84.80;;;;;;5010028;28;20210;-90
2022/05/30 12:09:57;;;;;;;1.27;0.98;;;19.80;85.00;;;;;;5010157;28;20191;-91
2022/05/30 12:12:35;;;;;;;1.50;1.02;;;20.20;81.90;;;;;;5010248;28;20278;-91
2022/05/30 12:15:42;;;;;;;2.28;1.00;;;20.70;84.10;;;;;;5013867;28;20239;-91
2022/05/30 12:24:14;;;;;;;2.30;1.17;;;22.50;76.90;;;;;;5040148;28;20178;-91
2022/05/30 12:26:49;;;;;;;1.60;1.10;;;22.30;76.20;;;;;;5042694;28;20183;-91
2022/05/30 12:29:37;;;;;;;2.55;1.10;;;22.50;76.80;;;;;;5048975;28;20200;-91
2022/05/30 12:32:12;;;;;;;1.88;0.88;;;22.80;73.70;;;;;;5034097;28;20206;-90
2022/05/30 12:37:47;;;;;;;1.73;0.90;;;22.70;75.30;;;;;;5029127;28;20183;-91
2022/05/30 12:40:25;;;;;;;1.58;1.10;;;22.70;72.90;;;;;;5010569;28;20218;-91
2022/05/30 12:43:33;;;;;;;1.42;0.90;;;22.40;72.50;;;;;;5032815;28;20187;-91
2022/05/30 12:45:59;;;;;;;2.67;1.00;;;22.60;72.50;;;;;;5019949;28;20339;-91
2022/05/30 12:48:33;;;;;;;1.58;1.00;;;22.50;72.80;;;;;;5014420;28;20203;-91
2022/05/30 12:51:20;;;;;;;1.65;0.98;;;22.50;72.70;;;;;;5031074;28;20238;-90
2022/05/30 12:53:58;;;;;;;1.65;1.00;;;22.30;71.50;;;;;;5033431;28;20210;-91
2022/05/30 12:56:49;;;;;;;2.40;1.00;;;21.70;74.70;;;;;;5017832;28;20183;-90
2022/05/30 13:00:00;;;;;;;2.47;1.15;;;21.50;75.10;;;;;;5017950;28;20186;-90
2022/05/30 13:03:03;;;;;;;1.10;0.90;;;21.60;74.60;;;;;;5017219;28;20202;-91
2022/05/30 13:05:59;;;;;;;1.00;0.98;;;22.00;74.00;;;;;;5017515;28;20174;-90
2022/05/30 13:09:07;;;;;;;2.53;0.98;;;22.00;74.30;;;;;;5034533;28;20179;-91
2022/05/30 13:11:43;;;;;;;2.38;1.00;;;21.70;75.40;;;;;;4997010;28;20369;-90
2022/05/30 13:14:09;;;;;;;1.77;1.20;;;21.60;76.00;;;;;;5014362;28;20186;-90
2022/05/30 13:16:41;;;;;;;1.00;0.90;;;21.50;76.40;;;;;;5034418;28;20178;-90
2022/05/30 13:19:16;;;;;;;1.25;0.90;;;21.40;76.70;;;;;;5033941;28;20174;-90
2022/05/30 13:21:49;;;;;;;1.40;1.05;;;21.40;77.10;;;;;;4999639;28;20264;-90
2022/05/30 13:24:29;;;;;;;3.05;1.20;;;21.30;76.40;;;;;;5015599;28;20171;-89
2022/05/30 13:26:56;;;;;;;2.63;1.08;;;21.30;78.30;;;;;;5019323;28;20162;-90
2022/05/30 13:29:38;;;;;;;1.98;1.08;;;21.50;75.70;;;;;;5019722;28;20171;-90
2022/05/30 13:32:08;;;;;;;1.67;1.27;;;22.00;75.60;;;;;;5019026;28;20210;-90
2022/05/30 13:34:35;;;;;;;1.70;1.20;;;22.10;72.70;;;;;;5035930;28;20241;-90
2022/05/30 13:37:03;;;;;;;1.50;1.08;;;22.30;72.30;;;;;;5036445;28;20175;-90
2022/05/30 13:39:31;;;;;;;1.55;0.93;;;22.60;71.30;;;;;;5034984;28;20183;-90
2022/05/30 13:41:57;;;;;;;1.85;1.10;;;23.00;71.80;;;;;;5035338;28;20203;-90
2022/05/30 13:44:27;;;;;;;2.20;1.10;;;22.60;71.10;;;;;;5018530;28;20291;-89
2022/05/30 13:46:59;;;;;;;2.45;1.05;;;22.60;71.10;;;;;;5019368;28;20179;-90
2022/05/30 13:49:50;;;;;;;2.15;1.00;;;22.90;72.80;;;;;;5020042;28;20615;-91
2022/05/30 13:52:30;;;;;;;2.05;1.20;;;23.20;70.70;;;;;;5018099;28;20217;-90
2022/05/30 13:55:11;;;;;;;1.25;1.02;;;23.20;69.60;;;;;;5017798;28;20230;-90
2022/05/30 13:57:37;;;;;;;2.92;1.23;;;23.40;68.90;;;;;;5051258;28;20170;-91
2022/05/30 14:00:23;;;;;;;1.70;1.10;;;23.40;70.30;;;;;;5050266;28;20202;-91
2022/05/30 14:02:49;;;;;;;2.40;1.05;;;23.80;69.80;;;;;;5051367;28;20166;-91
2022/05/30 14:05:30;;;;;;;2.33;0.98;;;24.10;69.40;;;;;;5050700;28;20174;-91
2022/05/30 14:07:56;;;;;;;1.80;1.00;;;24.10;69.10;;;;;;5017866;28;20234;-91